createdAt,value
2018-11-23T00:02:03.977Z,62.77
2018-11-23T00:04:33.613Z,68.07
2018-11-23T00:07:03.927Z,63.83
2018-11-23T00:09:33.642Z,63.67
2018-11-23T00:12:03.657Z,65.90
2018-11-23T00:14:33.443Z,63.43
2018-11-23T00:17:03.907Z,62.37
2018-11-23T00:19:33.791Z,63.83
2018-11-23T00:22:04.084Z,59.23
2018-11-23T00:24:34.432Z,62.77
2018-11-23T00:27:04.336Z,60.23
2018-11-23T00:29:35.510Z,61.20
2018-11-23T00:32:06.473Z,54.30
2018-11-23T00:34:37.283Z,62.60
2018-11-23T00:37:07.744Z,63.63
2018-11-23T00:39:38.705Z,60.80
2018-11-23T00:42:09.506Z,58.10
2018-11-23T00:44:39.902Z,56.97
2018-11-23T00:47:09.783Z,53.53
2018-11-23T00:49:40.069Z,50.93
2018-11-23T00:52:10.277Z,58.77
2018-11-23T00:54:40.565Z,60.03
2018-11-23T00:57:10.313Z,62.33
2018-11-23T00:59:40.363Z,54.37
2018-11-23T01:02:11.662Z,55.40
2018-11-23T01:04:41.536Z,56.50
2018-11-23T01:07:11.497Z,55.87
2018-11-23T01:09:42.122Z,59.37
2018-11-23T01:12:13.680Z,53.20
2018-11-23T01:14:43.652Z,52.53
2018-11-23T01:17:13.755Z,53.87
2018-11-23T01:19:43.804Z,54.37
2018-11-23T01:22:14.117Z,57.90
2018-11-23T01:24:43.974Z,60.50
2018-11-23T01:27:13.598Z,62.73
2018-11-23T01:29:43.574Z,56.00
2018-11-23T01:32:13.582Z,62.57
2018-11-23T01:34:43.391Z,64.70
2018-11-23T01:37:13.395Z,61.97
2018-11-23T01:39:43.542Z,58.43
2018-11-23T01:42:14.528Z,65.57
2018-11-23T01:44:50.712Z,68.53
2018-11-23T01:47:22.598Z,62.17
2018-11-23T01:49:53.467Z,58.27
2018-11-23T01:52:23.139Z,60.90
2018-11-23T01:54:54.204Z,66.87
2018-11-23T01:57:23.704Z,64.80
2018-11-23T01:59:53.677Z,67.23
2018-11-23T02:02:23.788Z,75.13
2018-11-23T02:04:53.830Z,71.13
2018-11-23T02:07:24.799Z,74.17
2018-11-23T02:09:57.015Z,69.07
2018-11-23T02:12:26.742Z,64.77
2018-11-23T02:14:56.490Z,65.40
2018-11-23T02:17:27.205Z,65.00
2018-11-23T02:19:58.458Z,75.40
2018-11-23T02:22:29.520Z,64.33
2018-11-23T02:24:59.444Z,69.73
2018-11-23T02:27:29.363Z,69.43
2018-11-23T02:30:00.281Z,70.83
2018-11-23T02:32:31.829Z,72.17
2018-11-23T02:35:01.716Z,70.40
2018-11-23T02:37:31.875Z,72.40
2018-11-23T02:40:02.064Z,62.57
2018-11-23T02:42:31.839Z,69.93
2018-11-23T02:45:02.014Z,67.17
2018-11-23T02:47:32.075Z,66.10
2018-11-23T02:50:01.787Z,67.77
2018-11-23T02:52:32.196Z,67.90
2018-11-23T02:55:01.786Z,68.63
2018-11-23T02:57:31.669Z,70.20
2018-11-23T03:00:03.311Z,64.70
2018-11-23T03:02:32.959Z,73.63
2018-11-23T03:05:03.202Z,73.87
2018-11-23T03:07:32.981Z,68.43
2018-11-23T03:10:03.386Z,75.60
2018-11-23T03:12:33.373Z,67.47
2018-11-23T03:15:03.331Z,69.90
2018-11-23T03:17:33.738Z,71.37
2018-11-23T03:20:04.106Z,76.27
2018-11-23T03:22:34.148Z,82.00
2018-11-23T03:25:04.716Z,78.33
2018-11-23T03:27:34.656Z,75.27
2018-11-23T03:30:05.089Z,72.70
2018-11-23T03:32:35.140Z,71.67
2018-11-23T03:35:05.091Z,69.90
2018-11-23T03:37:34.854Z,67.90
2018-11-23T03:40:05.335Z,58.77
2018-11-23T03:42:35.098Z,59.20
2018-11-23T03:45:05.592Z,69.50
2018-11-23T03:47:35.379Z,61.10
2018-11-23T03:50:05.407Z,56.93
2018-11-23T03:52:35.444Z,63.60
2018-11-23T03:55:05.734Z,57.90
2018-11-23T03:57:36.358Z,59.87
2018-11-23T04:00:17.155Z,54.20
2018-11-23T04:02:41.924Z,52.77
2018-11-23T04:05:11.988Z,47.13
2018-11-23T04:07:42.468Z,43.63
2018-11-23T04:10:13.671Z,45.30
2018-11-23T04:12:43.871Z,44.00
2018-11-23T04:15:14.228Z,42.40
2018-11-23T04:17:45.531Z,42.87
2018-11-23T04:20:17.920Z,41.53
2018-11-23T04:22:47.685Z,38.77
2018-11-23T04:25:18.350Z,40.50
2018-11-23T04:27:48.094Z,41.67
2018-11-23T04:30:18.717Z,39.17
2018-11-23T04:32:49.560Z,37.70
2018-11-23T04:35:20.495Z,36.50
2018-11-23T04:37:50.818Z,36.80
2018-11-23T04:40:20.783Z,38.47
2018-11-23T04:42:50.605Z,34.47
2018-11-23T04:45:20.276Z,36.27
2018-11-23T04:47:50.087Z,29.77
2018-11-23T04:50:21.040Z,39.50
2018-11-23T04:52:50.522Z,35.47
2018-11-23T04:55:34.380Z,33.40
2018-11-23T04:58:04.034Z,37.03
2018-11-23T05:00:33.670Z,39.17
2018-11-23T05:03:04.053Z,38.97
2018-11-23T05:05:33.933Z,35.93
2018-11-23T05:08:06.740Z,35.27
2018-11-23T05:10:41.496Z,36.93
2018-11-23T05:13:23.235Z,33.10
2018-11-23T05:15:53.013Z,34.53
2018-11-23T05:18:22.864Z,34.43
2018-11-23T05:20:57.233Z,31.80
2018-11-23T05:23:27.857Z,32.30
2018-11-23T05:25:57.758Z,31.77
2018-11-23T05:28:29.567Z,32.50
2018-11-23T05:31:00.635Z,29.53
2018-11-23T05:33:31.178Z,29.03
2018-11-23T05:36:00.864Z,30.70
2018-11-23T05:38:31.571Z,33.53
2018-11-23T05:41:02.263Z,27.43
2018-11-23T05:43:32.191Z,32.00
2018-11-23T05:46:02.966Z,28.93
2018-11-23T05:48:33.584Z,27.97
2018-11-23T05:51:05.539Z,24.63
2018-11-23T05:53:35.608Z,25.10
2018-11-23T05:56:06.206Z,22.20
2018-11-23T05:58:38.011Z,20.87
2018-11-23T06:01:07.979Z,16.83
2018-11-23T06:03:37.843Z,17.80
2018-11-23T06:06:08.525Z,17.13
2018-11-23T06:08:38.358Z,17.50
2018-11-23T06:11:08.605Z,15.00
2018-11-23T06:13:39.748Z,15.48
2018-11-23T06:16:09.659Z,13.60
2018-11-23T06:18:39.515Z,13.43
2018-11-23T06:21:10.759Z,10.68
2018-11-23T06:23:40.707Z,13.32
2018-11-23T06:26:25.462Z,12.05
2018-11-23T06:28:55.573Z,12.13
2018-11-23T06:31:25.370Z,13.70
2018-11-23T06:33:57.247Z,12.15
2018-11-23T06:36:27.499Z,11.43
2018-11-23T06:38:58.613Z,11.70
2018-11-23T06:41:28.426Z,11.95
2018-11-23T06:44:04.661Z,13.35
2018-11-23T06:46:34.217Z,13.65
2018-11-23T06:49:04.405Z,13.13
2018-11-23T06:51:34.606Z,13.15
2018-11-23T06:54:04.453Z,12.70
2018-11-23T06:56:34.751Z,12.03
2018-11-23T06:59:04.672Z,13.00
2018-11-23T07:01:34.482Z,11.97
2018-11-23T07:04:04.471Z,13.72
2018-11-23T07:06:34.377Z,13.35
2018-11-23T07:09:05.548Z,13.40
2018-11-23T07:11:35.884Z,11.22
2018-11-23T07:14:06.192Z,13.03
2018-11-23T07:16:36.056Z,11.50
2018-11-23T07:19:06.621Z,12.23
2018-11-23T07:21:36.842Z,13.10
2018-11-23T07:24:07.002Z,11.53
2018-11-23T07:26:37.046Z,13.15
2018-11-23T07:29:07.730Z,13.72
2018-11-23T07:31:37.754Z,12.88
2018-11-23T07:34:08.055Z,12.53
2018-11-23T07:36:38.225Z,11.68
2018-11-23T07:39:13.495Z,12.25
2018-11-23T07:41:53.776Z,11.80
2018-11-23T07:44:26.076Z,11.30
2018-11-23T07:46:56.215Z,12.00
2018-11-23T07:49:26.614Z,11.35
2018-11-23T07:51:56.361Z,11.45
2018-11-23T07:54:26.026Z,11.95
2018-11-23T07:57:01.152Z,12.00
2018-11-23T07:59:31.262Z,12.10
2018-11-23T08:02:01.168Z,12.35
2018-11-23T08:04:31.447Z,11.80
2018-11-23T08:07:01.106Z,10.93
2018-11-23T08:09:31.566Z,11.43
2018-11-23T08:12:01.978Z,11.40
2018-11-23T08:14:31.816Z,11.55
2018-11-23T08:17:02.057Z,10.90
2018-11-23T08:19:33.224Z,11.43
2018-11-23T08:22:03.803Z,11.60
2018-11-23T08:24:33.918Z,12.00
2018-11-23T08:27:04.046Z,11.40
2018-11-23T08:29:34.008Z,12.18
2018-11-23T08:32:03.869Z,11.20
2018-11-23T08:34:35.379Z,11.60
2018-11-23T08:37:05.147Z,11.80
2018-11-23T08:39:36.694Z,12.53
2018-11-23T08:42:07.109Z,12.98
2018-11-23T08:44:37.528Z,12.85
2018-11-23T08:47:07.718Z,14.15
2018-11-23T08:49:38.420Z,14.18
2018-11-23T08:52:08.195Z,23.92
2018-11-23T08:54:38.224Z,23.17
2018-11-23T08:57:08.431Z,18.73
2018-11-23T08:59:38.685Z,20.55
2018-11-23T09:02:08.313Z,20.67
2018-11-23T09:04:38.978Z,24.60
2018-11-23T09:07:08.770Z,23.27
2018-11-23T09:09:39.432Z,60.10
2018-11-23T09:12:09.516Z,16.73
2018-11-23T09:14:41.878Z,20.20
2018-11-23T09:17:12.269Z,17.17
2018-11-23T09:19:44.824Z,17.93
2018-11-23T09:22:14.834Z,14.80
2018-11-23T09:24:45.530Z,15.90
2018-11-23T09:27:15.520Z,15.77
2018-11-23T09:29:45.231Z,13.20
2018-11-23T09:32:15.195Z,14.00
2018-11-23T09:34:45.607Z,16.03
2018-11-23T09:37:15.195Z,13.47
2018-11-23T09:39:45.838Z,12.57
2018-11-23T09:42:16.089Z,13.03
2018-11-23T09:44:46.051Z,12.13
2018-11-23T09:47:16.365Z,11.20
2018-11-23T09:49:46.541Z,13.87
2018-11-23T09:52:19.720Z,14.63
2018-11-23T09:54:49.672Z,12.50
2018-11-23T09:57:19.564Z,15.10
2018-11-23T09:59:49.362Z,12.33
2018-11-23T10:02:19.335Z,13.40
2018-11-23T10:04:49.287Z,12.97
2018-11-23T10:07:19.186Z,11.70
2018-11-23T10:09:50.077Z,11.80
2018-11-23T10:12:19.538Z,11.87
2018-11-23T10:14:49.280Z,12.60
2018-11-23T10:17:18.815Z,13.70
2018-11-23T10:19:49.652Z,14.13
2018-11-23T10:22:19.763Z,13.40
2018-11-23T10:24:49.467Z,14.00
2018-11-23T10:27:19.761Z,14.57
2018-11-23T10:29:55.140Z,14.60
2018-11-23T10:32:21.052Z,16.10
2018-11-23T10:34:51.553Z,15.60
2018-11-23T10:37:22.279Z,17.43
2018-11-23T10:39:52.491Z,16.17
2018-11-23T10:42:22.655Z,16.73
2018-11-23T10:44:52.758Z,16.67
2018-11-23T10:47:22.788Z,22.17
2018-11-23T10:49:53.187Z,16.20
2018-11-23T10:52:23.424Z,22.43
2018-11-23T10:54:53.347Z,18.83
2018-11-23T10:57:24.210Z,17.77
2018-11-23T10:59:54.159Z,20.60
2018-11-23T11:04:32.365Z,18.87
2018-11-23T11:07:09.884Z,19.67
2018-11-23T11:09:40.357Z,19.77
2018-11-23T11:12:09.968Z,18.97
2018-11-23T11:14:40.535Z,16.67
2018-11-23T11:17:10.498Z,19.30
2018-11-23T11:19:40.584Z,18.53
2018-11-23T11:22:10.499Z,20.07
2018-11-23T11:24:40.794Z,19.60
2018-11-23T11:27:10.817Z,18.57
2018-11-23T11:29:40.846Z,19.50
2018-11-23T11:32:11.077Z,19.53
2018-11-23T11:34:41.670Z,20.53
2018-11-23T11:37:11.427Z,20.07
2018-11-23T11:39:41.642Z,20.70
2018-11-23T11:42:11.570Z,25.97
2018-11-23T11:44:41.979Z,21.23
2018-11-23T11:47:12.114Z,21.80
2018-11-23T11:49:41.842Z,21.93
2018-11-23T11:52:11.497Z,25.70
2018-11-23T11:54:41.474Z,21.13
2018-11-23T11:57:11.847Z,21.60
2018-11-23T11:59:41.643Z,19.40
2018-11-23T12:02:15.160Z,17.50
2018-11-23T12:04:45.176Z,17.77
2018-11-23T12:07:15.037Z,18.60
2018-11-23T12:09:44.970Z,20.47
2018-11-23T12:12:14.597Z,23.57
2018-11-23T12:14:44.576Z,20.80
2018-11-23T12:17:14.161Z,22.73
2018-11-23T12:19:43.700Z,21.60
2018-11-23T12:22:14.340Z,23.90
2018-11-23T12:24:43.901Z,22.27
2018-11-23T12:27:13.366Z,26.30
2018-11-23T12:29:43.659Z,21.60
2018-11-23T12:32:13.162Z,21.27
2018-11-23T12:34:42.677Z,21.37
2018-11-23T12:37:12.512Z,19.80
2018-11-23T12:39:42.023Z,19.30
2018-11-23T12:42:12.371Z,20.60
2018-11-23T12:44:41.927Z,18.97
2018-11-23T12:47:12.018Z,16.60
2018-11-23T12:49:42.151Z,18.30
2018-11-23T12:52:11.711Z,19.63
2018-11-23T12:54:42.334Z,17.97
2018-11-23T12:57:13.298Z,18.60
2018-11-23T12:59:42.643Z,16.53
2018-11-23T13:02:12.143Z,16.13
2018-11-23T13:04:41.661Z,17.57
2018-11-23T13:07:12.890Z,17.20
2018-11-23T13:09:43.122Z,16.33
2018-11-23T13:12:13.258Z,17.37
2018-11-23T13:14:43.015Z,17.47
2018-11-23T13:17:14.979Z,16.97
2018-11-23T13:19:45.391Z,18.23
2018-11-23T13:22:19.291Z,18.50
2018-11-23T13:24:52.430Z,20.30
2018-11-23T13:27:22.539Z,20.10
2018-11-23T13:29:55.335Z,21.13
2018-11-23T13:32:25.562Z,18.07
2018-11-23T13:34:56.730Z,17.37
2018-11-23T13:37:29.209Z,19.30
2018-11-23T13:40:00.598Z,17.07
2018-11-23T13:42:34.122Z,17.93
2018-11-23T13:45:05.093Z,18.10
2018-11-23T13:47:35.923Z,20.57
2018-11-23T13:50:07.803Z,16.23
2018-11-23T13:52:38.586Z,17.57
2018-11-23T13:55:09.147Z,18.90
2018-11-23T13:57:39.456Z,20.00
2018-11-23T14:00:14.419Z,17.83
2018-11-23T14:02:44.949Z,18.33
2018-11-23T14:05:18.521Z,19.73
2018-11-23T14:07:51.120Z,17.90
2018-11-23T14:10:27.301Z,18.47
2018-11-23T14:12:59.026Z,19.03
2018-11-23T14:15:36.190Z,17.60
2018-11-23T14:18:06.915Z,18.97
2018-11-23T14:20:38.344Z,27.50
2018-11-23T14:23:09.196Z,17.40
2018-11-23T14:25:38.974Z,43.07
2018-11-23T14:28:09.321Z,20.10
2018-11-23T14:30:39.392Z,16.87
2018-11-23T14:33:10.324Z,19.67
2018-11-23T14:35:40.317Z,37.07
2018-11-23T14:38:11.342Z,22.10
2018-11-23T14:40:40.919Z,26.37
2018-11-23T14:43:11.132Z,24.03
2018-11-23T14:45:41.744Z,40.10
2018-11-23T14:48:14.008Z,48.87
2018-11-23T14:50:52.768Z,19.50
2018-11-23T14:53:23.344Z,17.70
2018-11-23T14:55:58.319Z,30.33
2018-11-23T14:58:30.933Z,22.80
2018-11-23T15:01:04.885Z,16.07
2018-11-23T15:03:41.580Z,17.83
2018-11-23T15:06:12.541Z,15.73
2018-11-23T15:08:42.459Z,17.70
2018-11-23T15:11:13.574Z,17.50
2018-11-23T15:13:43.294Z,17.23
2018-11-23T15:16:20.574Z,17.70
2018-11-23T15:18:51.516Z,17.57
2018-11-23T15:21:22.806Z,18.80
2018-11-23T15:23:52.676Z,17.97
2018-11-23T15:26:23.532Z,17.00
2018-11-23T15:28:54.692Z,24.37
2018-11-23T15:31:25.198Z,17.63
2018-11-23T15:33:55.699Z,17.60
2018-11-23T15:36:25.784Z,17.57
2018-11-23T15:38:56.842Z,16.77
2018-11-23T15:41:28.505Z,17.60
2018-11-23T15:43:58.648Z,30.10
2018-11-23T15:46:29.010Z,17.10
2018-11-23T15:48:59.596Z,17.20
2018-11-23T15:51:29.355Z,17.70
2018-11-23T15:54:00.155Z,15.80
2018-11-23T15:56:31.133Z,18.13
2018-11-23T15:59:01.093Z,24.80
2018-11-23T16:01:31.887Z,36.57
2018-11-23T16:04:03.127Z,46.73
2018-11-23T16:06:35.711Z,23.27
2018-11-23T16:09:10.976Z,26.43
2018-11-23T16:11:42.356Z,20.80
2018-11-23T16:14:14.220Z,19.23
2018-11-23T16:16:44.302Z,23.87
2018-11-23T16:19:14.440Z,23.37
2018-11-23T16:21:44.908Z,22.77
2018-11-23T16:24:14.965Z,21.80
2018-11-23T16:26:46.455Z,19.73
2018-11-23T16:29:17.101Z,22.57
2018-11-23T16:31:47.360Z,24.23
2018-11-23T16:34:18.639Z,22.40
2018-11-23T16:36:49.284Z,18.87
2018-11-23T16:39:19.622Z,21.33
2018-11-23T16:41:50.324Z,21.20
2018-11-23T16:44:22.118Z,22.10
2018-11-23T16:46:53.321Z,34.47
2018-11-23T16:49:25.097Z,28.10
2018-11-23T16:51:56.085Z,28.30
2018-11-23T16:54:26.761Z,32.17
2018-11-23T16:56:56.869Z,36.67
2018-11-23T16:59:26.674Z,41.97
2018-11-23T17:01:56.897Z,41.80
2018-11-23T17:04:29.144Z,32.00
2018-11-23T17:06:59.325Z,35.20
2018-11-23T17:09:33.006Z,25.50
2018-11-23T17:12:02.921Z,29.80
2018-11-23T17:14:33.989Z,37.87
2018-11-23T17:17:04.269Z,31.70
2018-11-23T17:19:35.109Z,31.10
2018-11-23T17:22:07.277Z,28.10
2018-11-23T17:24:37.746Z,32.67
2018-11-23T17:27:08.206Z,28.53
2018-11-23T17:29:38.804Z,31.70
2018-11-23T17:32:09.432Z,26.87
2018-11-23T17:34:42.151Z,31.93
2018-11-23T17:37:12.913Z,28.53
2018-11-23T17:39:42.648Z,33.13
2018-11-23T17:42:13.239Z,27.83
2018-11-23T17:44:44.096Z,30.00
2018-11-23T17:47:16.635Z,42.60
2018-11-23T17:49:46.472Z,39.43
2018-11-23T17:52:17.984Z,31.23
2018-11-23T17:54:48.374Z,31.73
2018-11-23T17:57:18.714Z,31.67
2018-11-23T17:59:53.064Z,30.87
2018-11-23T18:02:27.895Z,41.07
2018-11-23T18:04:59.410Z,39.23
2018-11-23T18:07:31.411Z,32.67
2018-11-23T18:10:01.352Z,32.33
2018-11-23T18:12:31.513Z,33.27
2018-11-23T18:15:01.954Z,40.07
2018-11-23T18:17:31.537Z,38.13
2018-11-23T18:20:01.616Z,29.77
2018-11-23T18:22:31.637Z,32.17
2018-11-23T18:25:01.294Z,41.53
2018-11-23T18:27:31.805Z,34.53
2018-11-23T18:30:01.995Z,32.30
2018-11-23T18:32:32.098Z,31.17
2018-11-23T18:35:02.751Z,42.50
2018-11-23T18:37:32.647Z,31.37
2018-11-23T18:40:02.492Z,33.03
2018-11-23T18:42:33.098Z,34.07
2018-11-23T18:45:04.300Z,30.00
2018-11-23T18:47:34.292Z,34.93
2018-11-23T18:50:05.632Z,36.23
2018-11-23T18:52:35.312Z,35.13
2018-11-23T18:55:05.253Z,28.50
2018-11-23T18:57:37.481Z,31.00
2018-11-23T19:00:10.766Z,26.33
2018-11-23T19:02:40.955Z,21.23
2018-11-23T19:05:13.377Z,18.83
2018-11-23T19:07:43.142Z,21.17
2018-11-23T19:10:14.530Z,24.10
2018-11-23T19:12:44.384Z,19.27
2018-11-23T19:15:16.171Z,17.50
2018-11-23T19:17:46.410Z,19.20
2018-11-23T19:20:19.912Z,21.23
2018-11-23T19:22:50.651Z,22.33
2018-11-23T19:25:21.440Z,19.53
2018-11-23T19:27:52.111Z,16.53
2018-11-23T19:30:28.022Z,17.23
2018-11-23T19:32:54.420Z,18.30
2018-11-23T19:35:24.356Z,18.40
2018-11-23T19:37:54.400Z,17.13
2018-11-23T19:40:24.063Z,19.13
2018-11-23T19:42:54.749Z,17.57
2018-11-23T19:45:24.821Z,17.13
2018-11-23T19:47:54.489Z,16.10
2018-11-23T19:50:24.138Z,20.30
2018-11-23T19:52:54.950Z,23.73
2018-11-23T19:55:24.889Z,17.90
2018-11-23T19:57:54.464Z,16.33
2018-11-23T20:00:26.710Z,13.70
2018-11-23T20:02:57.744Z,14.90
2018-11-23T20:05:28.506Z,15.20
2018-11-23T20:07:58.929Z,13.70
2018-11-23T20:10:29.456Z,15.30
2018-11-23T20:13:03.496Z,14.13
2018-11-23T20:15:34.825Z,12.63
2018-11-23T20:18:08.133Z,14.23
2018-11-23T20:20:39.109Z,14.40
2018-11-23T20:23:09.102Z,13.43
2018-11-23T20:25:39.012Z,13.60
2018-11-23T20:28:09.815Z,13.53
2018-11-23T20:30:42.439Z,15.23
2018-11-23T20:33:12.708Z,14.33
2018-11-23T20:35:43.918Z,13.47
2018-11-23T20:38:13.706Z,15.63
2018-11-23T20:40:43.885Z,13.80
2018-11-23T20:43:14.064Z,13.87
2018-11-23T20:45:43.776Z,15.43
2018-11-23T20:48:14.177Z,15.10
2018-11-23T20:50:44.279Z,14.00
2018-11-23T20:53:14.896Z,13.47
2018-11-23T20:55:45.309Z,13.47
2018-11-23T20:58:18.689Z,12.90
2018-11-23T21:00:48.396Z,13.00
2018-11-23T21:03:18.415Z,12.23
2018-11-23T21:05:48.431Z,12.73
2018-11-23T21:08:20.051Z,12.60
2018-11-23T21:10:49.887Z,12.47
2018-11-23T21:13:20.047Z,14.00
2018-11-23T21:15:49.887Z,14.17
2018-11-23T21:18:20.397Z,12.93
2018-11-23T21:20:50.851Z,13.90
2018-11-23T21:23:21.017Z,13.97
2018-11-23T21:25:51.104Z,13.10
2018-11-23T21:28:23.179Z,14.13
2018-11-23T21:30:54.260Z,14.33
2018-11-23T21:33:24.823Z,13.83
2018-11-23T21:35:54.909Z,14.53
2018-11-23T21:38:25.579Z,13.67
2018-11-23T21:40:56.915Z,13.33
2018-11-23T21:43:27.445Z,11.80
2018-11-23T21:45:58.304Z,12.53
2018-11-23T21:48:28.219Z,12.80
2018-11-23T21:50:57.933Z,13.87
2018-11-23T21:53:28.645Z,10.77
2018-11-23T21:55:59.170Z,11.30
2018-11-23T21:58:30.911Z,11.17
2018-11-23T22:01:01.619Z,12.30
2018-11-23T22:03:32.262Z,12.27
2018-11-23T22:06:04.921Z,11.77
2018-11-23T22:08:35.242Z,12.63
2018-11-23T22:11:06.609Z,10.77
2018-11-23T22:13:36.989Z,36.43
2018-11-23T22:16:07.988Z,36.80
2018-11-23T22:18:38.457Z,18.50
2018-11-23T22:21:08.834Z,12.03
2018-11-23T22:23:38.424Z,11.17
2018-11-23T22:26:08.830Z,12.40
2018-11-23T22:28:39.029Z,11.27
2018-11-23T22:31:08.972Z,11.80
2018-11-23T22:33:39.235Z,11.47
2018-11-23T22:36:08.934Z,12.80
2018-11-23T22:38:39.054Z,12.20
2018-11-23T22:41:09.268Z,9.80
2018-11-23T22:43:39.235Z,10.13
2018-11-23T22:46:09.768Z,10.20
2018-11-23T22:48:39.862Z,9.50
2018-11-23T22:51:09.515Z,9.40
2018-11-23T22:53:39.501Z,10.40
2018-11-23T22:56:10.033Z,9.73
2018-11-23T22:58:40.324Z,8.93
2018-11-23T23:01:10.485Z,10.70
2018-11-23T23:03:41.740Z,9.23
2018-11-23T23:06:12.375Z,9.87
2018-11-23T23:08:42.466Z,9.47
2018-11-23T23:11:12.724Z,10.07
2018-11-23T23:13:42.991Z,10.30
2018-11-23T23:16:14.078Z,11.97
2018-11-23T23:18:44.700Z,15.97
2018-11-23T23:21:14.763Z,17.47
2018-11-23T23:23:44.570Z,23.43
2018-11-23T23:26:14.642Z,22.60
2018-11-23T23:28:45.097Z,18.70
2018-11-23T23:31:14.925Z,16.80
2018-11-23T23:33:45.239Z,16.00
2018-11-23T23:36:15.463Z,24.23
2018-11-23T23:38:45.358Z,16.50
2018-11-23T23:41:16.158Z,12.27
2018-11-23T23:43:45.937Z,23.20
2018-11-23T23:46:46.365Z,16.43
2018-11-23T23:49:17.361Z,10.60
2018-11-23T23:51:47.193Z,10.00
2018-11-23T23:54:17.951Z,10.13
2018-11-23T23:56:47.631Z,10.10
2018-11-23T23:59:17.352Z,10.30
